createdAt,value
2022-10-10T00:00:11.558Z,10.72
2022-10-10T00:05:35.274Z,13.33
2022-10-10T00:10:57.554Z,13.37
2022-10-10T00:16:20.179Z,13.90
2022-10-10T00:21:42.508Z,14.58
2022-10-10T00:27:05.151Z,11.67
2022-10-10T00:32:27.828Z,13.40
2022-10-10T00:37:51.468Z,13.05
2022-10-10T00:43:15.388Z,13.10
2022-10-10T00:48:48.248Z,13.60
2022-10-10T00:54:14.704Z,12.43
2022-10-10T00:59:39.450Z,13.80
2022-10-10T01:05:02.755Z,14.55
2022-10-10T01:10:28.195Z,15.60
2022-10-10T01:15:58.441Z,13.57
2022-10-10T01:27:33.955Z,12.60
2022-10-10T01:33:22.125Z,12.43
2022-10-10T01:39:10.381Z,13.10
2022-10-10T01:44:34.751Z,13.90
2022-10-10T01:50:00.726Z,13.77
2022-10-10T01:55:57.722Z,15.47
2022-10-10T02:01:31.185Z,17.13
2022-10-10T02:07:08.871Z,16.87
2022-10-10T02:12:33.522Z,15.00
2022-10-10T02:17:59.118Z,13.33
2022-10-10T02:23:23.885Z,14.00
2022-10-10T02:29:02.900Z,14.40
2022-10-10T02:34:36.052Z,13.03
2022-10-10T02:40:03.225Z,12.93
2022-10-10T02:45:28.594Z,13.05
2022-10-10T02:50:51.181Z,13.72
2022-10-10T02:56:13.450Z,14.43
2022-10-10T03:01:35.948Z,15.50
2022-10-10T03:06:58.060Z,15.50
2022-10-10T03:12:20.647Z,13.67
2022-10-10T03:17:43.364Z,13.00
2022-10-10T03:23:06.044Z,13.10
2022-10-10T03:28:28.953Z,13.93
2022-10-10T03:33:51.242Z,14.47
2022-10-10T03:39:13.868Z,13.73
2022-10-10T03:44:36.084Z,14.03
2022-10-10T03:49:58.714Z,13.17
2022-10-10T03:55:21.425Z,13.20
2022-10-10T04:00:44.195Z,14.15
2022-10-10T04:06:06.398Z,14.20
2022-10-10T04:11:28.618Z,14.17
2022-10-10T04:16:50.824Z,13.30
2022-10-10T04:22:12.977Z,14.45
2022-10-10T04:27:35.114Z,13.10
2022-10-10T04:32:57.714Z,14.38
2022-10-10T04:38:21.576Z,13.58
2022-10-10T04:43:44.233Z,13.95
2022-10-10T04:49:06.802Z,14.27
2022-10-10T04:54:28.948Z,14.85
2022-10-10T04:59:51.255Z,14.58
2022-10-10T05:05:13.930Z,14.40
2022-10-10T05:10:38.665Z,15.18
2022-10-10T05:16:02.637Z,14.10
2022-10-10T05:21:24.919Z,15.13
2022-10-10T05:26:47.053Z,14.55
2022-10-10T05:32:10.640Z,14.30
2022-10-10T05:37:33.433Z,14.35
2022-10-10T05:42:55.593Z,14.37
2022-10-10T05:48:19.011Z,14.47
2022-10-10T05:53:42.661Z,15.30
2022-10-10T05:59:04.851Z,15.03
2022-10-10T06:04:27.050Z,14.50
2022-10-10T06:09:49.408Z,15.57
2022-10-10T06:15:11.890Z,16.00
2022-10-10T06:20:34.130Z,16.00
2022-10-10T06:25:58.664Z,17.30
2022-10-10T06:31:23.916Z,15.63
2022-10-10T06:36:46.570Z,14.87
2022-10-10T06:42:08.828Z,15.03
2022-10-10T06:47:31.550Z,15.88
2022-10-10T06:52:54.178Z,15.33
2022-10-10T06:58:16.416Z,15.07
2022-10-10T07:03:39.684Z,15.70
2022-10-10T07:09:02.775Z,15.37
2022-10-10T07:14:25.196Z,15.18
2022-10-10T07:19:49.120Z,15.00
2022-10-10T07:25:12.104Z,16.10
2022-10-10T07:30:34.600Z,21.12
2022-10-10T07:36:00.976Z,15.25
2022-10-10T07:41:31.393Z,15.73
2022-10-10T07:46:54.047Z,14.60
2022-10-10T07:52:18.205Z,14.23
2022-10-10T07:57:41.674Z,13.58
2022-10-10T08:03:06.435Z,13.53
2022-10-10T08:08:29.280Z,13.45
2022-10-10T08:13:52.429Z,12.15
2022-10-10T08:24:36.782Z,11.55
2022-10-10T08:29:59.020Z,12.05
2022-10-10T08:35:21.285Z,11.10
2022-10-10T08:40:55.359Z,10.57
2022-10-10T08:46:24.983Z,8.70
2022-10-10T08:51:49.138Z,9.10
2022-10-10T08:57:16.459Z,8.50
2022-10-10T09:02:59.436Z,7.23
2022-10-10T09:08:35.552Z,6.40
2022-10-10T09:14:30.397Z,5.00
2022-10-10T09:20:22.485Z,4.40
2022-10-10T09:26:11.104Z,4.83
2022-10-10T09:31:49.738Z,5.45
2022-10-10T09:37:35.350Z,5.05
2022-10-10T09:42:48.338Z,5.37
2022-10-10T09:48:12.161Z,5.60
2022-10-10T09:53:35.746Z,6.60
2022-10-10T09:59:03.771Z,5.97
2022-10-10T10:04:31.924Z,5.95
2022-10-10T10:09:57.312Z,5.15
2022-10-10T10:15:36.140Z,5.80
2022-10-10T10:21:03.987Z,4.60
2022-10-10T10:26:31.112Z,5.37
2022-10-10T10:32:12.409Z,5.33
2022-10-10T10:38:00.948Z,5.12
2022-10-10T10:43:43.056Z,4.72
2022-10-10T10:49:10.602Z,4.53
2022-10-10T10:55:04.016Z,4.28
2022-10-10T11:01:23.827Z,4.55
2022-10-10T11:06:32.587Z,4.97
2022-10-10T11:12:24.122Z,4.62
2022-10-10T11:18:03.497Z,5.08
2022-10-10T11:23:39.788Z,5.33
2022-10-10T11:29:12.998Z,5.08
2022-10-10T11:34:55.349Z,5.08
2022-10-10T11:46:03.747Z,4.93
2022-10-10T11:51:33.289Z,5.37
2022-10-10T11:56:58.679Z,4.73
2022-10-10T12:02:31.144Z,4.87
2022-10-10T12:08:06.742Z,5.13
2022-10-10T12:13:42.139Z,5.03
2022-10-10T12:19:11.815Z,5.03
2022-10-10T12:24:42.562Z,4.33
2022-10-10T12:30:16.468Z,4.77
2022-10-10T12:35:49.166Z,4.30
2022-10-10T12:41:27.846Z,4.60
2022-10-10T12:46:51.057Z,4.70
2022-10-10T12:52:31.481Z,3.77
2022-10-10T12:58:06.625Z,4.37
2022-10-10T13:03:41.782Z,4.42
2022-10-10T13:09:31.042Z,4.53
2022-10-10T13:15:03.257Z,4.40
2022-10-10T13:26:10.511Z,4.10
2022-10-10T13:31:33.398Z,4.47
2022-10-10T13:36:56.003Z,4.27
2022-10-10T13:42:30.080Z,4.13
2022-10-10T13:48:09.954Z,4.50
2022-10-10T13:53:45.309Z,4.97
2022-10-10T13:59:17.781Z,4.63
2022-10-10T14:04:53.019Z,3.87
2022-10-10T14:10:32.281Z,4.30
2022-10-10T14:16:02.081Z,4.10
2022-10-10T14:21:26.070Z,4.90
2022-10-10T14:26:49.182Z,4.50
2022-10-10T14:32:11.384Z,5.20
2022-10-10T14:37:41.955Z,4.33
2022-10-10T14:43:04.149Z,5.10
2022-10-10T14:48:26.485Z,4.72
2022-10-10T14:54:11.924Z,6.37
2022-10-10T14:59:13.014Z,4.62
2022-10-10T15:04:35.238Z,4.83
2022-10-10T15:15:24.402Z,4.60
2022-10-10T15:20:47.319Z,4.87
2022-10-10T15:26:11.704Z,4.80
2022-10-10T15:31:41.355Z,4.83
2022-10-10T15:37:04.458Z,4.90
2022-10-10T15:42:27.822Z,4.70
2022-10-10T15:47:52.838Z,5.08
2022-10-10T15:53:15.038Z,4.58
2022-10-10T15:58:37.168Z,4.85
2022-10-10T16:04:00.974Z,4.92
2022-10-10T16:09:28.470Z,4.73
2022-10-10T16:14:48.133Z,4.80
2022-10-10T16:20:10.472Z,5.47
2022-10-10T16:25:33.061Z,5.62
2022-10-10T16:30:55.202Z,5.53
2022-10-10T16:36:23.101Z,5.42
2022-10-10T16:41:48.328Z,5.28
2022-10-10T16:47:11.231Z,5.23
2022-10-10T16:52:35.032Z,6.17
2022-10-10T16:57:59.490Z,5.60
2022-10-10T17:03:22.490Z,7.30
2022-10-10T17:08:45.758Z,5.60
2022-10-10T17:14:08.774Z,5.30
2022-10-10T17:19:31.216Z,5.23
2022-10-10T17:24:53.433Z,5.25
2022-10-10T17:30:16.941Z,5.00
2022-10-10T17:35:39.204Z,5.22
2022-10-10T17:41:04.292Z,6.08
2022-10-10T17:46:36.552Z,6.20
2022-10-10T17:52:00.143Z,5.75
2022-10-10T17:57:22.447Z,5.40
2022-10-10T18:02:45.281Z,5.40
2022-10-10T18:08:09.904Z,4.95
2022-10-10T18:13:32.213Z,4.60
2022-10-10T18:18:56.649Z,6.12
2022-10-10T18:24:20.407Z,5.03
2022-10-10T18:29:42.687Z,4.87
2022-10-10T18:35:04.832Z,5.25
2022-10-10T18:40:28.002Z,4.70
2022-10-10T18:45:50.796Z,5.22
2022-10-10T18:51:19.973Z,5.60
2022-10-10T18:56:44.740Z,4.90
2022-10-10T19:02:07.152Z,5.00
2022-10-10T19:07:29.290Z,5.60
2022-10-10T19:12:51.801Z,5.72
2022-10-10T19:18:14.148Z,6.17
2022-10-10T19:23:36.855Z,5.92
2022-10-10T19:29:03.093Z,5.63
2022-10-10T19:34:23.766Z,5.17
2022-10-10T19:39:46.429Z,5.50
2022-10-10T19:45:08.641Z,5.63
2022-10-10T19:50:31.288Z,5.93
2022-10-10T19:56:04.517Z,5.93
2022-10-10T20:01:30.597Z,5.62
2022-10-10T20:06:54.275Z,5.80
2022-10-10T20:12:16.493Z,5.47
2022-10-10T20:17:40.193Z,5.17
2022-10-10T20:23:02.382Z,5.90
2022-10-10T20:28:26.728Z,6.12
2022-10-10T20:33:49.492Z,6.35
2022-10-10T20:39:18.463Z,6.67
2022-10-10T20:44:40.623Z,7.00
2022-10-10T20:50:03.261Z,7.00
2022-10-10T20:55:25.898Z,7.27
2022-10-10T21:00:48.130Z,7.45
2022-10-10T21:06:29.888Z,8.45
2022-10-10T21:11:55.036Z,8.37
2022-10-10T21:17:17.698Z,8.63
2022-10-10T21:22:40.386Z,8.83
2022-10-10T21:28:02.963Z,9.15
2022-10-10T21:33:25.248Z,8.00
2022-10-10T21:38:49.367Z,8.33
2022-10-10T21:44:12.872Z,8.67
2022-10-10T21:49:35.012Z,8.53
2022-10-10T21:54:57.146Z,8.00
2022-10-10T22:00:21.001Z,7.47
2022-10-10T22:05:45.114Z,6.70
2022-10-10T22:11:10.325Z,7.05
2022-10-10T22:16:32.574Z,6.58
2022-10-10T22:21:54.723Z,7.35
2022-10-10T22:27:16.854Z,7.55
2022-10-10T22:32:39.654Z,8.15
2022-10-10T22:38:01.817Z,8.40
2022-10-10T22:43:27.015Z,9.45
2022-10-10T22:48:48.643Z,10.08
2022-10-10T22:54:10.818Z,9.43
2022-10-10T22:59:33.894Z,8.80
2022-10-10T23:04:56.457Z,8.68
2022-10-10T23:10:19.331Z,8.68
2022-10-10T23:15:41.484Z,9.48
2022-10-10T23:21:04.336Z,9.35
2022-10-10T23:26:27.340Z,9.35
2022-10-10T23:31:50.823Z,10.05
2022-10-10T23:37:13.508Z,11.10
2022-10-10T23:42:35.691Z,10.23
2022-10-10T23:47:58.308Z,10.00
2022-10-10T23:53:20.635Z,9.98
2022-10-10T23:58:42.792Z,10.18
